sensor_id;sensor_type;location;lat;lon;timestamp;P1;durP1;ratioP1;P2;durP2;ratioP2
18042;SDS011;9146;48.074;11.968;2022-11-20T00:01:10;3.47;;;2.60;;
18042;SDS011;9146;48.074;11.968;2022-11-20T00:03:41;2.60;;;2.40;;
18042;SDS011;9146;48.074;11.968;2022-11-20T00:06:13;2.90;;;2.70;;
18042;SDS011;9146;48.074;11.968;2022-11-20T00:08:41;3.10;;;2.80;;
18042;SDS011;9146;48.074;11.968;2022-11-20T00:11:09;2.67;;;2.50;;
18042;SDS011;9146;48.074;11.968;2022-11-20T00:13:37;3.77;;;2.60;;
18042;SDS011;9146;48.074;11.968;2022-11-20T00:16:05;3.10;;;2.80;;
18042;SDS011;9146;48.074;11.968;2022-11-20T00:18:33;7.13;;;2.87;;
18042;SDS011;9146;48.074;11.968;2022-11-20T00:21:01;3.13;;;2.83;;
18042;SDS011;9146;48.074;11.968;2022-11-20T00:23:30;2.80;;;2.60;;
18042;SDS011;9146;48.074;11.968;2022-11-20T00:26:01;3.30;;;2.53;;
18042;SDS011;9146;48.074;11.968;2022-11-20T00:28:29;2.83;;;2.50;;
18042;SDS011;9146;48.074;11.968;2022-11-20T00:31:00;6.27;;;2.70;;
18042;SDS011;9146;48.074;11.968;2022-11-20T00:33:28;6.53;;;2.57;;
18042;SDS011;9146;48.074;11.968;2022-11-20T00:35:58;4.70;;;2.70;;
18042;SDS011;9146;48.074;11.968;2022-11-20T00:38:26;2.80;;;2.53;;
18042;SDS011;9146;48.074;11.968;2022-11-20T00:40:55;2.70;;;2.50;;
18042;SDS011;9146;48.074;11.968;2022-11-20T00:43:23;2.67;;;2.30;;
18042;SDS011;9146;48.074;11.968;2022-11-20T00:45:50;2.80;;;2.30;;
18042;SDS011;9146;48.074;11.968;2022-11-20T00:48:22;3.07;;;2.80;;
18042;SDS011;9146;48.074;11.968;2022-11-20T00:50:48;7.30;;;2.70;;
18042;SDS011;9146;48.074;11.968;2022-11-20T00:53:15;2.20;;;2.10;;
18042;SDS011;9146;48.074;11.968;2022-11-20T00:55:51;2.80;;;2.60;;
18042;SDS011;9146;48.074;11.968;2022-11-20T00:58:20;3.23;;;2.57;;
18042;SDS011;9146;48.074;11.968;2022-11-20T01:00:47;2.90;;;2.53;;
18042;SDS011;9146;48.074;11.968;2022-11-20T01:03:15;2.70;;;2.50;;
18042;SDS011;9146;48.074;11.968;2022-11-20T01:05:42;2.10;;;1.90;;
18042;SDS011;9146;48.074;11.968;2022-11-20T01:08:10;2.20;;;2.03;;
18042;SDS011;9146;48.074;11.968;2022-11-20T01:10:36;4.00;;;2.10;;
18042;SDS011;9146;48.074;11.968;2022-11-20T01:13:03;2.50;;;2.30;;
18042;SDS011;9146;48.074;11.968;2022-11-20T01:15:49;2.07;;;1.90;;
18042;SDS011;9146;48.074;11.968;2022-11-20T01:18:16;1.73;;;1.63;;
18042;SDS011;9146;48.074;11.968;2022-11-20T01:20:42;2.23;;;2.13;;
18042;SDS011;9146;48.074;11.968;2022-11-20T01:23:09;1.30;;;1.30;;
18042;SDS011;9146;48.074;11.968;2022-11-20T01:25:36;2.53;;;2.33;;
18042;SDS011;9146;48.074;11.968;2022-11-20T01:28:03;3.47;;;2.40;;
18042;SDS011;9146;48.074;11.968;2022-11-20T01:30:30;1.93;;;1.83;;
18042;SDS011;9146;48.074;11.968;2022-11-20T01:32:58;6.67;;;2.47;;
18042;SDS011;9146;48.074;11.968;2022-11-20T01:35:27;2.40;;;2.20;;
18042;SDS011;9146;48.074;11.968;2022-11-20T01:37:54;3.03;;;2.80;;
18042;SDS011;9146;48.074;11.968;2022-11-20T01:40:21;2.57;;;2.37;;
18042;SDS011;9146;48.074;11.968;2022-11-20T01:42:52;2.43;;;2.23;;
18042;SDS011;9146;48.074;11.968;2022-11-20T01:45:56;11.23;;;2.73;;
18042;SDS011;9146;48.074;11.968;2022-11-20T01:48:32;2.93;;;2.13;;
18042;SDS011;9146;48.074;11.968;2022-11-20T01:51:03;4.30;;;2.20;;
18042;SDS011;9146;48.074;11.968;2022-11-20T01:53:33;2.70;;;2.47;;
18042;SDS011;9146;48.074;11.968;2022-11-20T01:56:03;2.90;;;2.70;;
18042;SDS011;9146;48.074;11.968;2022-11-20T01:58:35;3.10;;;2.60;;
18042;SDS011;9146;48.074;11.968;2022-11-20T02:01:04;2.50;;;2.40;;
18042;SDS011;9146;48.074;11.968;2022-11-20T02:03:32;2.80;;;2.60;;
18042;SDS011;9146;48.074;11.968;2022-11-20T02:06:01;2.77;;;2.57;;
18042;SDS011;9146;48.074;11.968;2022-11-20T02:08:33;4.00;;;3.00;;
18042;SDS011;9146;48.074;11.968;2022-11-20T02:11:02;2.70;;;2.50;;
18042;SDS011;9146;48.074;11.968;2022-11-20T02:13:29;3.17;;;2.63;;
18042;SDS011;9146;48.074;11.968;2022-11-20T02:16:12;2.87;;;2.60;;
18042;SDS011;9146;48.074;11.968;2022-11-20T02:18:43;2.80;;;2.60;;
18042;SDS011;9146;48.074;11.968;2022-11-20T02:21:13;3.23;;;2.93;;
18042;SDS011;9146;48.074;11.968;2022-11-20T02:26:46;2.37;;;2.20;;
18042;SDS011;9146;48.074;11.968;2022-11-20T02:29:17;7.30;;;3.00;;
18042;SDS011;9146;48.074;11.968;2022-11-20T02:31:48;3.00;;;2.80;;
18042;SDS011;9146;48.074;11.968;2022-11-20T02:34:16;3.90;;;2.73;;
18042;SDS011;9146;48.074;11.968;2022-11-20T02:36:43;3.27;;;2.97;;
18042;SDS011;9146;48.074;11.968;2022-11-20T02:39:11;5.60;;;2.63;;
18042;SDS011;9146;48.074;11.968;2022-11-20T02:41:43;6.10;;;2.70;;
18042;SDS011;9146;48.074;11.968;2022-11-20T02:44:10;4.60;;;3.43;;
18042;SDS011;9146;48.074;11.968;2022-11-20T02:46:37;3.20;;;2.70;;
18042;SDS011;9146;48.074;11.968;2022-11-20T02:49:04;2.23;;;2.13;;
18042;SDS011;9146;48.074;11.968;2022-11-20T02:51:31;3.90;;;3.50;;
18042;SDS011;9146;48.074;11.968;2022-11-20T02:53:58;4.07;;;3.73;;
18042;SDS011;9146;48.074;11.968;2022-11-20T02:56:25;4.30;;;3.07;;
18042;SDS011;9146;48.074;11.968;2022-11-20T02:58:54;3.30;;;2.40;;
18042;SDS011;9146;48.074;11.968;2022-11-20T03:01:21;3.40;;;3.10;;
18042;SDS011;9146;48.074;11.968;2022-11-20T03:03:48;3.30;;;3.00;;
18042;SDS011;9146;48.074;11.968;2022-11-20T03:06:15;3.57;;;2.97;;
18042;SDS011;9146;48.074;11.968;2022-11-20T03:08:42;3.00;;;2.70;;
18042;SDS011;9146;48.074;11.968;2022-11-20T03:11:10;3.23;;;2.80;;
18042;SDS011;9146;48.074;11.968;2022-11-20T03:13:36;2.97;;;2.77;;
18042;SDS011;9146;48.074;11.968;2022-11-20T03:16:09;7.27;;;2.70;;
18042;SDS011;9146;48.074;11.968;2022-11-20T03:18:37;2.97;;;2.70;;
18042;SDS011;9146;48.074;11.968;2022-11-20T03:21:04;2.90;;;2.60;;
18042;SDS011;9146;48.074;11.968;2022-11-20T03:23:31;2.83;;;2.63;;
18042;SDS011;9146;48.074;11.968;2022-11-20T03:26:09;3.00;;;2.80;;
18042;SDS011;9146;48.074;11.968;2022-11-20T03:28:37;3.83;;;3.00;;
18042;SDS011;9146;48.074;11.968;2022-11-20T03:31:06;3.00;;;2.73;;
18042;SDS011;9146;48.074;11.968;2022-11-20T03:33:36;2.93;;;2.73;;
18042;SDS011;9146;48.074;11.968;2022-11-20T03:36:04;2.93;;;2.73;;
18042;SDS011;9146;48.074;11.968;2022-11-20T03:38:33;2.97;;;2.73;;
18042;SDS011;9146;48.074;11.968;2022-11-20T03:41:00;2.90;;;2.70;;
18042;SDS011;9146;48.074;11.968;2022-11-20T03:43:28;2.77;;;2.53;;
18042;SDS011;9146;48.074;11.968;2022-11-20T03:45:55;4.97;;;2.70;;
18042;SDS011;9146;48.074;11.968;2022-11-20T03:48:24;2.60;;;2.40;;
18042;SDS011;9146;48.074;11.968;2022-11-20T03:50:51;3.20;;;2.93;;
18042;SDS011;9146;48.074;11.968;2022-11-20T03:53:18;2.60;;;2.37;;
18042;SDS011;9146;48.074;11.968;2022-11-20T03:55:49;3.77;;;2.67;;
18042;SDS011;9146;48.074;11.968;2022-11-20T03:58:17;2.77;;;2.60;;
18042;SDS011;9146;48.074;11.968;2022-11-20T04:00:43;6.30;;;2.90;;
18042;SDS011;9146;48.074;11.968;2022-11-20T04:03:10;2.73;;;2.53;;
18042;SDS011;9146;48.074;11.968;2022-11-20T04:05:39;3.57;;;2.10;;
18042;SDS011;9146;48.074;11.968;2022-11-20T04:08:06;2.60;;;2.40;;
18042;SDS011;9146;48.074;11.968;2022-11-20T04:10:33;3.43;;;2.60;;
18042;SDS011;9146;48.074;11.968;2022-11-20T04:13:00;2.63;;;2.40;;
18042;SDS011;9146;48.074;11.968;2022-11-20T04:15:27;2.73;;;2.50;;
18042;SDS011;9146;48.074;11.968;2022-11-20T04:17:54;2.80;;;2.60;;
18042;SDS011;9146;48.074;11.968;2022-11-20T04:20:21;3.20;;;2.90;;
18042;SDS011;9146;48.074;11.968;2022-11-20T04:22:49;2.97;;;2.77;;
18042;SDS011;9146;48.074;11.968;2022-11-20T04:25:19;9.00;;;3.57;;
18042;SDS011;9146;48.074;11.968;2022-11-20T04:27:46;2.90;;;2.70;;
18042;SDS011;9146;48.074;11.968;2022-11-20T04:30:13;6.57;;;3.20;;
18042;SDS011;9146;48.074;11.968;2022-11-20T04:32:40;3.13;;;2.93;;
18042;SDS011;9146;48.074;11.968;2022-11-20T04:35:07;3.23;;;2.90;;
18042;SDS011;9146;48.074;11.968;2022-11-20T04:37:34;2.97;;;2.73;;
18042;SDS011;9146;48.074;11.968;2022-11-20T04:40:03;2.60;;;2.40;;
18042;SDS011;9146;48.074;11.968;2022-11-20T04:42:30;4.00;;;2.67;;
18042;SDS011;9146;48.074;11.968;2022-11-20T04:44:57;2.90;;;2.70;;
18042;SDS011;9146;48.074;11.968;2022-11-20T04:47:24;2.80;;;2.60;;
18042;SDS011;9146;48.074;11.968;2022-11-20T04:49:51;2.93;;;2.50;;
18042;SDS011;9146;48.074;11.968;2022-11-20T04:52:18;3.00;;;2.73;;
18042;SDS011;9146;48.074;11.968;2022-11-20T04:54:45;3.00;;;2.80;;
18042;SDS011;9146;48.074;11.968;2022-11-20T04:57:14;2.73;;;2.53;;
18042;SDS011;9146;48.074;11.968;2022-11-20T04:59:41;2.40;;;2.30;;
18042;SDS011;9146;48.074;11.968;2022-11-20T05:02:08;2.97;;;2.60;;
18042;SDS011;9146;48.074;11.968;2022-11-20T05:04:36;3.00;;;2.70;;
18042;SDS011;9146;48.074;11.968;2022-11-20T05:07:03;2.80;;;2.50;;
18042;SDS011;9146;48.074;11.968;2022-11-20T05:09:30;3.20;;;2.50;;
18042;SDS011;9146;48.074;11.968;2022-11-20T05:11:57;3.63;;;3.10;;
18042;SDS011;9146;48.074;11.968;2022-11-20T05:14:25;3.03;;;2.63;;
18042;SDS011;9146;48.074;11.968;2022-11-20T05:16:52;2.70;;;2.50;;
18042;SDS011;9146;48.074;11.968;2022-11-20T05:19:19;3.50;;;2.73;;
18042;SDS011;9146;48.074;11.968;2022-11-20T05:21:46;2.43;;;2.23;;
18042;SDS011;9146;48.074;11.968;2022-11-20T05:24:13;3.70;;;2.70;;
18042;SDS011;9146;48.074;11.968;2022-11-20T05:26:40;2.87;;;2.60;;
18042;SDS011;9146;48.074;11.968;2022-11-20T05:29:09;3.00;;;2.27;;
18042;SDS011;9146;48.074;11.968;2022-11-20T05:31:38;2.83;;;2.57;;
18042;SDS011;9146;48.074;11.968;2022-11-20T05:34:06;2.60;;;2.40;;
18042;SDS011;9146;48.074;11.968;2022-11-20T05:36:33;3.03;;;2.77;;
18042;SDS011;9146;48.074;11.968;2022-11-20T05:39:01;2.40;;;2.20;;
18042;SDS011;9146;48.074;11.968;2022-11-20T05:41:28;2.80;;;2.60;;
18042;SDS011;9146;48.074;11.968;2022-11-20T05:43:55;2.73;;;2.50;;
18042;SDS011;9146;48.074;11.968;2022-11-20T05:46:22;2.67;;;2.47;;
18042;SDS011;9146;48.074;11.968;2022-11-20T05:48:51;3.40;;;2.73;;
18042;SDS011;9146;48.074;11.968;2022-11-20T05:51:18;3.10;;;2.47;;
18042;SDS011;9146;48.074;11.968;2022-11-20T05:53:45;2.97;;;2.67;;
18042;SDS011;9146;48.074;11.968;2022-11-20T05:56:13;2.57;;;2.37;;
18042;SDS011;9146;48.074;11.968;2022-11-20T05:58:41;9.20;;;3.83;;
18042;SDS011;9146;48.074;11.968;2022-11-20T06:01:10;2.90;;;2.70;;
18042;SDS011;9146;48.074;11.968;2022-11-20T06:03:37;2.97;;;2.77;;
18042;SDS011;9146;48.074;11.968;2022-11-20T06:06:06;3.93;;;3.50;;
18042;SDS011;9146;48.074;11.968;2022-11-20T06:08:34;3.20;;;3.00;;
18042;SDS011;9146;48.074;11.968;2022-11-20T06:11:04;4.00;;;2.87;;
18042;SDS011;9146;48.074;11.968;2022-11-20T06:13:32;4.93;;;2.80;;
18042;SDS011;9146;48.074;11.968;2022-11-20T06:15:59;4.53;;;2.87;;
18042;SDS011;9146;48.074;11.968;2022-11-20T06:18:27;3.67;;;2.80;;
18042;SDS011;9146;48.074;11.968;2022-11-20T06:21:00;4.30;;;3.20;;
18042;SDS011;9146;48.074;11.968;2022-11-20T06:23:30;5.10;;;2.90;;
18042;SDS011;9146;48.074;11.968;2022-11-20T06:26:00;3.07;;;2.60;;
18042;SDS011;9146;48.074;11.968;2022-11-20T06:28:28;3.43;;;3.13;;
18042;SDS011;9146;48.074;11.968;2022-11-20T06:30:54;4.20;;;3.77;;
18042;SDS011;9146;48.074;11.968;2022-11-20T06:33:21;6.13;;;3.70;;
18042;SDS011;9146;48.074;11.968;2022-11-20T06:35:48;5.13;;;3.70;;
18042;SDS011;9146;48.074;11.968;2022-11-20T06:38:15;3.73;;;3.37;;
18042;SDS011;9146;48.074;11.968;2022-11-20T06:40:43;4.00;;;3.60;;
18042;SDS011;9146;48.074;11.968;2022-11-20T06:43:10;3.67;;;3.27;;
18042;SDS011;9146;48.074;11.968;2022-11-20T06:45:37;5.47;;;3.97;;
18042;SDS011;9146;48.074;11.968;2022-11-20T06:48:04;3.93;;;3.53;;
18042;SDS011;9146;48.074;11.968;2022-11-20T06:50:31;4.13;;;3.77;;
18042;SDS011;9146;48.074;11.968;2022-11-20T06:53:00;6.83;;;3.60;;
18042;SDS011;9146;48.074;11.968;2022-11-20T06:55:28;4.20;;;3.90;;
18042;SDS011;9146;48.074;11.968;2022-11-20T06:57:57;6.50;;;3.93;;
18042;SDS011;9146;48.074;11.968;2022-11-20T07:00:24;4.10;;;3.80;;
18042;SDS011;9146;48.074;11.968;2022-11-20T07:02:51;3.43;;;3.10;;
18042;SDS011;9146;48.074;11.968;2022-11-20T07:05:18;5.53;;;3.50;;
18042;SDS011;9146;48.074;11.968;2022-11-20T07:07:45;3.53;;;3.33;;
18042;SDS011;9146;48.074;11.968;2022-11-20T07:10:12;4.73;;;4.20;;
18042;SDS011;9146;48.074;11.968;2022-11-20T07:12:38;4.80;;;3.77;;
18042;SDS011;9146;48.074;11.968;2022-11-20T07:15:08;4.03;;;3.23;;
18042;SDS011;9146;48.074;11.968;2022-11-20T07:17:35;3.77;;;3.20;;
18042;SDS011;9146;48.074;11.968;2022-11-20T07:20:02;4.07;;;3.77;;
18042;SDS011;9146;48.074;11.968;2022-11-20T07:22:29;3.63;;;3.13;;
18042;SDS011;9146;48.074;11.968;2022-11-20T07:24:56;3.67;;;3.37;;
18042;SDS011;9146;48.074;11.968;2022-11-20T07:27:23;4.07;;;3.10;;
18042;SDS011;9146;48.074;11.968;2022-11-20T07:29:50;2.97;;;2.73;;
18042;SDS011;9146;48.074;11.968;2022-11-20T07:32:18;2.87;;;2.67;;
18042;SDS011;9146;48.074;11.968;2022-11-20T07:34:45;3.37;;;3.07;;
18042;SDS011;9146;48.074;11.968;2022-11-20T07:37:12;4.23;;;3.27;;
18042;SDS011;9146;48.074;11.968;2022-11-20T07:39:39;4.20;;;3.73;;
18042;SDS011;9146;48.074;11.968;2022-11-20T07:42:07;3.10;;;2.90;;
18042;SDS011;9146;48.074;11.968;2022-11-20T07:44:34;3.20;;;2.73;;
18042;SDS011;9146;48.074;11.968;2022-11-20T07:47:01;3.50;;;3.20;;
18042;SDS011;9146;48.074;11.968;2022-11-20T07:49:30;3.33;;;3.03;;
18042;SDS011;9146;48.074;11.968;2022-11-20T07:51:57;3.77;;;3.40;;
18042;SDS011;9146;48.074;11.968;2022-11-20T07:54:23;3.57;;;3.27;;
18042;SDS011;9146;48.074;11.968;2022-11-20T07:56:50;3.57;;;3.27;;
18042;SDS011;9146;48.074;11.968;2022-11-20T07:59:17;3.93;;;3.57;;
18042;SDS011;9146;48.074;11.968;2022-11-20T08:01:44;3.43;;;3.10;;
18042;SDS011;9146;48.074;11.968;2022-11-20T08:04:11;3.27;;;3.03;;
18042;SDS011;9146;48.074;11.968;2022-11-20T08:06:41;4.13;;;3.40;;
18042;SDS011;9146;48.074;11.968;2022-11-20T08:09:08;2.67;;;2.57;;
18042;SDS011;9146;48.074;11.968;2022-11-20T08:11:35;2.63;;;2.43;;
18042;SDS011;9146;48.074;11.968;2022-11-20T08:14:20;4.07;;;2.80;;
18042;SDS011;9146;48.074;11.968;2022-11-20T08:16:47;2.90;;;2.60;;
18042;SDS011;9146;48.074;11.968;2022-11-20T08:19:15;2.40;;;2.30;;
18042;SDS011;9146;48.074;11.968;2022-11-20T08:21:45;2.57;;;2.37;;
18042;SDS011;9146;48.074;11.968;2022-11-20T08:24:12;2.33;;;2.23;;
18042;SDS011;9146;48.074;11.968;2022-11-20T08:26:39;2.00;;;1.90;;
18042;SDS011;9146;48.074;11.968;2022-11-20T08:29:07;2.80;;;2.60;;
18042;SDS011;9146;48.074;11.968;2022-11-20T08:31:34;2.50;;;2.30;;
18042;SDS011;9146;48.074;11.968;2022-11-20T08:34:01;1.90;;;1.80;;
18042;SDS011;9146;48.074;11.968;2022-11-20T08:36:28;2.40;;;2.20;;
18042;SDS011;9146;48.074;11.968;2022-11-20T08:38:59;2.53;;;2.33;;
18042;SDS011;9146;48.074;11.968;2022-11-20T08:41:26;2.30;;;2.10;;
18042;SDS011;9146;48.074;11.968;2022-11-20T08:43:58;1.77;;;1.67;;
18042;SDS011;9146;48.074;11.968;2022-11-20T08:46:28;2.30;;;2.20;;
18042;SDS011;9146;48.074;11.968;2022-11-20T08:49:00;2.07;;;1.90;;
18042;SDS011;9146;48.074;11.968;2022-11-20T08:51:27;1.90;;;1.80;;
18042;SDS011;9146;48.074;11.968;2022-11-20T08:53:54;2.50;;;2.30;;
18042;SDS011;9146;48.074;11.968;2022-11-20T08:56:22;3.30;;;2.53;;
18042;SDS011;9146;48.074;11.968;2022-11-20T08:58:49;2.10;;;2.00;;
18042;SDS011;9146;48.074;11.968;2022-11-20T09:01:17;1.87;;;1.77;;
18042;SDS011;9146;48.074;11.968;2022-11-20T09:03:45;2.03;;;1.93;;
18042;SDS011;9146;48.074;11.968;2022-11-20T09:06:12;1.90;;;1.73;;
18042;SDS011;9146;48.074;11.968;2022-11-20T09:08:39;1.97;;;1.87;;
18042;SDS011;9146;48.074;11.968;2022-11-20T09:11:06;2.33;;;1.90;;
18042;SDS011;9146;48.074;11.968;2022-11-20T09:13:35;4.20;;;1.87;;
18042;SDS011;9146;48.074;11.968;2022-11-20T09:16:03;1.30;;;1.20;;
18042;SDS011;9146;48.074;11.968;2022-11-20T09:18:31;2.10;;;1.67;;
18042;SDS011;9146;48.074;11.968;2022-11-20T09:21:01;2.50;;;2.03;;
18042;SDS011;9146;48.074;11.968;2022-11-20T09:23:31;2.40;;;2.10;;
18042;SDS011;9146;48.074;11.968;2022-11-20T09:26:01;2.00;;;1.90;;
18042;SDS011;9146;48.074;11.968;2022-11-20T09:28:29;1.83;;;1.73;;
18042;SDS011;9146;48.074;11.968;2022-11-20T09:30:57;5.03;;;2.40;;
18042;SDS011;9146;48.074;11.968;2022-11-20T09:33:24;2.10;;;2.00;;
18042;SDS011;9146;48.074;11.968;2022-11-20T09:35:51;1.70;;;1.60;;
18042;SDS011;9146;48.074;11.968;2022-11-20T09:38:18;1.83;;;1.73;;
18042;SDS011;9146;48.074;11.968;2022-11-20T09:40:47;2.00;;;1.90;;
18042;SDS011;9146;48.074;11.968;2022-11-20T09:43:21;1.67;;;1.50;;
18042;SDS011;9146;48.074;11.968;2022-11-20T09:46:04;2.10;;;2.00;;
18042;SDS011;9146;48.074;11.968;2022-11-20T09:48:39;1.63;;;1.53;;
18042;SDS011;9146;48.074;11.968;2022-11-20T09:51:16;1.33;;;1.33;;
18042;SDS011;9146;48.074;11.968;2022-11-20T09:53:54;1.40;;;1.30;;
18042;SDS011;9146;48.074;11.968;2022-11-20T09:56:29;3.40;;;1.83;;
18042;SDS011;9146;48.074;11.968;2022-11-20T09:58:57;4.53;;;1.97;;
18042;SDS011;9146;48.074;11.968;2022-11-20T10:01:30;2.43;;;2.03;;
18042;SDS011;9146;48.074;11.968;2022-11-20T10:04:00;4.33;;;1.43;;
18042;SDS011;9146;48.074;11.968;2022-11-20T10:06:30;1.67;;;1.57;;
18042;SDS011;9146;48.074;11.968;2022-11-20T10:09:01;1.93;;;1.83;;
18042;SDS011;9146;48.074;11.968;2022-11-20T10:11:43;3.00;;;1.50;;
18042;SDS011;9146;48.074;11.968;2022-11-20T10:14:16;2.07;;;1.73;;
18042;SDS011;9146;48.074;11.968;2022-11-20T10:16:55;2.00;;;1.63;;
18042;SDS011;9146;48.074;11.968;2022-11-20T10:19:37;2.60;;;1.80;;
18042;SDS011;9146;48.074;11.968;2022-11-20T10:22:21;1.70;;;1.60;;
18042;SDS011;9146;48.074;11.968;2022-11-20T10:24:59;2.20;;;2.00;;
18042;SDS011;9146;48.074;11.968;2022-11-20T10:27:35;2.43;;;1.83;;
18042;SDS011;9146;48.074;11.968;2022-11-20T10:30:40;2.00;;;1.20;;
18042;SDS011;9146;48.074;11.968;2022-11-20T10:33:13;1.07;;;1.07;;
18042;SDS011;9146;48.074;11.968;2022-11-20T10:35:44;1.10;;;1.10;;
18042;SDS011;9146;48.074;11.968;2022-11-20T10:38:18;1.10;;;1.00;;
18042;SDS011;9146;48.074;11.968;2022-11-20T10:40:50;1.50;;;1.23;;
18042;SDS011;9146;48.074;11.968;2022-11-20T10:43:42;1.30;;;1.20;;
18042;SDS011;9146;48.074;11.968;2022-11-20T10:46:12;1.40;;;1.33;;
18042;SDS011;9146;48.074;11.968;2022-11-20T10:48:44;1.37;;;1.20;;
18042;SDS011;9146;48.074;11.968;2022-11-20T10:51:13;1.63;;;1.50;;
18042;SDS011;9146;48.074;11.968;2022-11-20T10:53:51;1.20;;;1.10;;
18042;SDS011;9146;48.074;11.968;2022-11-20T10:56:25;1.23;;;1.13;;
18042;SDS011;9146;48.074;11.968;2022-11-20T11:01:54;1.73;;;1.57;;
18042;SDS011;9146;48.074;11.968;2022-11-20T11:04:28;1.77;;;1.67;;
18042;SDS011;9146;48.074;11.968;2022-11-20T11:07:04;18.13;;;7.00;;
18042;SDS011;9146;48.074;11.968;2022-11-20T11:09:37;1.47;;;1.37;;
18042;SDS011;9146;48.074;11.968;2022-11-20T11:12:07;1.57;;;1.47;;
18042;SDS011;9146;48.074;11.968;2022-11-20T11:14:41;4.20;;;1.20;;
18042;SDS011;9146;48.074;11.968;2022-11-20T11:17:26;1.30;;;1.20;;
18042;SDS011;9146;48.074;11.968;2022-11-20T11:22:46;1.37;;;1.23;;
18042;SDS011;9146;48.074;11.968;2022-11-20T11:28:03;1.40;;;1.30;;
18042;SDS011;9146;48.074;11.968;2022-11-20T11:30:45;1.40;;;1.30;;
18042;SDS011;9146;48.074;11.968;2022-11-20T11:33:18;1.10;;;1.10;;
18042;SDS011;9146;48.074;11.968;2022-11-20T11:35:48;1.17;;;1.07;;
18042;SDS011;9146;48.074;11.968;2022-11-20T11:38:19;1.23;;;1.13;;
18042;SDS011;9146;48.074;11.968;2022-11-20T11:40:49;1.03;;;1.00;;
18042;SDS011;9146;48.074;11.968;2022-11-20T11:43:19;3.77;;;1.37;;
18042;SDS011;9146;48.074;11.968;2022-11-20T11:46:11;1.13;;;1.10;;
18042;SDS011;9146;48.074;11.968;2022-11-20T11:48:54;1.30;;;1.30;;
18042;SDS011;9146;48.074;11.968;2022-11-20T11:51:24;1.10;;;1.00;;
18042;SDS011;9146;48.074;11.968;2022-11-20T11:53:55;1.70;;;0.97;;
18042;SDS011;9146;48.074;11.968;2022-11-20T11:56:24;2.60;;;2.40;;
18042;SDS011;9146;48.074;11.968;2022-11-20T11:58:53;1.47;;;1.37;;
18042;SDS011;9146;48.074;11.968;2022-11-20T12:01:28;5.50;;;1.30;;
18042;SDS011;9146;48.074;11.968;2022-11-20T12:04:02;1.37;;;1.30;;
18042;SDS011;9146;48.074;11.968;2022-11-20T12:06:35;0.90;;;0.90;;
18042;SDS011;9146;48.074;11.968;2022-11-20T12:09:04;0.90;;;0.90;;
18042;SDS011;9146;48.074;11.968;2022-11-20T12:11:35;1.93;;;1.27;;
18042;SDS011;9146;48.074;11.968;2022-11-20T12:14:09;1.53;;;1.10;;
18042;SDS011;9146;48.074;11.968;2022-11-20T12:16:41;2.33;;;1.20;;
18042;SDS011;9146;48.074;11.968;2022-11-20T12:19:09;1.30;;;1.20;;
18042;SDS011;9146;48.074;11.968;2022-11-20T12:21:42;1.10;;;1.10;;
18042;SDS011;9146;48.074;11.968;2022-11-20T12:24:25;1.00;;;1.00;;
18042;SDS011;9146;48.074;11.968;2022-11-20T12:27:20;3.30;;;1.50;;
18042;SDS011;9146;48.074;11.968;2022-11-20T12:30:10;1.20;;;1.20;;
18042;SDS011;9146;48.074;11.968;2022-11-20T12:32:43;1.27;;;1.17;;
18042;SDS011;9146;48.074;11.968;2022-11-20T12:35:23;0.93;;;0.93;;
18042;SDS011;9146;48.074;11.968;2022-11-20T12:38:08;1.47;;;1.27;;
18042;SDS011;9146;48.074;11.968;2022-11-20T12:40:59;1.00;;;1.00;;
18042;SDS011;9146;48.074;11.968;2022-11-20T12:43:32;3.70;;;1.70;;
18042;SDS011;9146;48.074;11.968;2022-11-20T12:46:25;2.10;;;1.50;;
18042;SDS011;9146;48.074;11.968;2022-11-20T12:49:08;1.33;;;1.20;;
18042;SDS011;9146;48.074;11.968;2022-11-20T12:51:48;1.50;;;1.40;;
18042;SDS011;9146;48.074;11.968;2022-11-20T12:57:41;1.53;;;1.50;;
18042;SDS011;9146;48.074;11.968;2022-11-20T13:00:16;1.10;;;1.10;;
18042;SDS011;9146;48.074;11.968;2022-11-20T13:05:54;1.40;;;1.30;;
18042;SDS011;9146;48.074;11.968;2022-11-20T13:08:27;1.50;;;1.40;;
18042;SDS011;9146;48.074;11.968;2022-11-20T13:10:59;1.53;;;1.43;;
18042;SDS011;9146;48.074;11.968;2022-11-20T13:13:35;2.27;;;2.17;;
18042;SDS011;9146;48.074;11.968;2022-11-20T13:16:10;1.47;;;1.40;;
18042;SDS011;9146;48.074;11.968;2022-11-20T13:18:43;2.43;;;1.50;;
18042;SDS011;9146;48.074;11.968;2022-11-20T13:21:17;1.57;;;1.47;;
18042;SDS011;9146;48.074;11.968;2022-11-20T13:23:45;2.57;;;2.37;;
18042;SDS011;9146;48.074;11.968;2022-11-20T13:26:16;1.53;;;1.43;;
18042;SDS011;9146;48.074;11.968;2022-11-20T13:28:46;1.93;;;1.43;;
18042;SDS011;9146;48.074;11.968;2022-11-20T13:31:28;1.20;;;1.20;;
18042;SDS011;9146;48.074;11.968;2022-11-20T13:33:57;1.33;;;1.30;;
18042;SDS011;9146;48.074;11.968;2022-11-20T13:36:28;1.40;;;1.30;;
18042;SDS011;9146;48.074;11.968;2022-11-20T13:38:57;2.90;;;1.60;;
18042;SDS011;9146;48.074;11.968;2022-11-20T13:41:25;1.43;;;1.33;;
18042;SDS011;9146;48.074;11.968;2022-11-20T13:44:04;1.40;;;1.40;;
18042;SDS011;9146;48.074;11.968;2022-11-20T13:46:38;1.90;;;1.63;;
18042;SDS011;9146;48.074;11.968;2022-11-20T13:49:09;1.70;;;1.60;;
18042;SDS011;9146;48.074;11.968;2022-11-20T13:51:42;1.10;;;1.10;;
18042;SDS011;9146;48.074;11.968;2022-11-20T13:57:21;1.60;;;1.50;;
18042;SDS011;9146;48.074;11.968;2022-11-20T14:00:09;1.67;;;1.53;;
18042;SDS011;9146;48.074;11.968;2022-11-20T14:02:38;1.37;;;1.27;;
18042;SDS011;9146;48.074;11.968;2022-11-20T14:05:06;3.90;;;1.53;;
18042;SDS011;9146;48.074;11.968;2022-11-20T14:07:45;1.63;;;1.53;;
18042;SDS011;9146;48.074;11.968;2022-11-20T14:10:19;1.50;;;1.43;;
18042;SDS011;9146;48.074;11.968;2022-11-20T14:12:48;1.47;;;1.37;;
18042;SDS011;9146;48.074;11.968;2022-11-20T14:15:25;1.47;;;1.40;;
18042;SDS011;9146;48.074;11.968;2022-11-20T14:17:54;1.67;;;1.57;;
18042;SDS011;9146;48.074;11.968;2022-11-20T14:20:23;2.30;;;1.93;;
18042;SDS011;9146;48.074;11.968;2022-11-20T14:22:53;1.97;;;1.87;;
18042;SDS011;9146;48.074;11.968;2022-11-20T14:25:21;1.80;;;1.70;;
18042;SDS011;9146;48.074;11.968;2022-11-20T14:27:52;2.70;;;1.70;;
18042;SDS011;9146;48.074;11.968;2022-11-20T14:30:21;2.20;;;2.00;;
18042;SDS011;9146;48.074;11.968;2022-11-20T14:32:51;3.30;;;2.60;;
18042;SDS011;9146;48.074;11.968;2022-11-20T14:35:21;2.10;;;2.00;;
18042;SDS011;9146;48.074;11.968;2022-11-20T14:37:51;3.43;;;2.20;;
18042;SDS011;9146;48.074;11.968;2022-11-20T14:40:22;1.80;;;1.70;;
18042;SDS011;9146;48.074;11.968;2022-11-20T14:42:51;2.73;;;2.53;;
18042;SDS011;9146;48.074;11.968;2022-11-20T14:45:18;2.83;;;2.53;;
18042;SDS011;9146;48.074;11.968;2022-11-20T14:47:45;3.20;;;2.90;;
18042;SDS011;9146;48.074;11.968;2022-11-20T14:50:16;2.80;;;2.60;;
18042;SDS011;9146;48.074;11.968;2022-11-20T14:52:52;2.83;;;2.63;;
18042;SDS011;9146;48.074;11.968;2022-11-20T14:55:27;3.37;;;2.30;;
18042;SDS011;9146;48.074;11.968;2022-11-20T14:57:55;2.30;;;2.10;;
18042;SDS011;9146;48.074;11.968;2022-11-20T15:00:24;1.77;;;1.67;;
18042;SDS011;9146;48.074;11.968;2022-11-20T15:02:51;1.97;;;1.87;;
18042;SDS011;9146;48.074;11.968;2022-11-20T15:05:20;1.80;;;1.70;;
18042;SDS011;9146;48.074;11.968;2022-11-20T15:07:49;2.10;;;2.00;;
18042;SDS011;9146;48.074;11.968;2022-11-20T15:10:21;2.37;;;1.80;;
18042;SDS011;9146;48.074;11.968;2022-11-20T15:12:49;1.90;;;1.80;;
18042;SDS011;9146;48.074;11.968;2022-11-20T15:15:20;2.80;;;2.60;;
18042;SDS011;9146;48.074;11.968;2022-11-20T15:17:50;1.70;;;1.60;;
18042;SDS011;9146;48.074;11.968;2022-11-20T15:20:18;2.73;;;2.10;;
18042;SDS011;9146;48.074;11.968;2022-11-20T15:22:47;1.97;;;1.87;;
18042;SDS011;9146;48.074;11.968;2022-11-20T15:25:15;2.37;;;2.17;;
18042;SDS011;9146;48.074;11.968;2022-11-20T15:27:45;1.83;;;1.73;;